Terminal Aerodrome Forecast
Issued by NWS

Home | Current Version | Previous Version | Text Only | Print | Product List | Glossary On
Versions: 1 2 3 4 5 6 7 8 9 10 11 12 13
604
FTUS42 TJSJ 232339
TAFJMZ
TAF
TJMZ 232339Z 2400/2424 08005KT P6SM SCT030 BKN060 BKN120
     FM240300 06003KT P6SM FEW035 FEW060 SCT120
     FM241450 08009KT P6SM FEW025 SCT040
     FM241700 28011KT P6SM VCTS SCT025CB BKN040
      TEMPO 2419/2423 VRB15G20KT 3SM TSRA BKN025CB
      AMD NOT SKED=

USA.gov is the U.S. government's official web portal to all federal, state and local government web resources and services.